createdAt,value
2023-03-05T00:00:28.536Z,5.90
2023-03-05T00:02:55.348Z,5.80
2023-03-05T00:05:22.551Z,5.80
2023-03-05T00:07:49.336Z,5.80
2023-03-05T00:10:16.196Z,5.80
2023-03-05T00:12:43.056Z,5.80
2023-03-05T00:15:10.133Z,5.80
2023-03-05T00:17:37.374Z,5.80
2023-03-05T00:20:04.410Z,5.80
2023-03-05T00:22:31.227Z,5.80
2023-03-05T00:24:58.227Z,5.80
2023-03-05T00:27:25.124Z,5.70
2023-03-05T00:29:51.973Z,5.70
2023-03-05T00:32:18.786Z,5.70
2023-03-05T00:34:45.615Z,5.70
2023-03-05T00:37:12.477Z,5.70
2023-03-05T00:39:39.457Z,5.70
2023-03-05T00:42:06.524Z,5.70
2023-03-05T00:44:33.553Z,5.70
2023-03-05T00:47:00.394Z,5.70
2023-03-05T00:49:27.296Z,5.70
2023-03-05T00:51:54.275Z,5.70
2023-03-05T00:54:22.031Z,5.70
2023-03-05T00:56:49.220Z,5.60
2023-03-05T00:59:16.128Z,5.70
2023-03-05T01:01:42.991Z,5.70
2023-03-05T01:04:09.968Z,5.70
2023-03-05T01:06:38.129Z,5.70
2023-03-05T01:09:04.842Z,5.60
2023-03-05T01:11:32.070Z,5.60
2023-03-05T01:13:59.005Z,5.60
2023-03-05T01:16:26.510Z,5.60
2023-03-05T01:18:56.327Z,5.60
2023-03-05T01:21:23.237Z,5.50
2023-03-05T01:23:50.010Z,5.60
2023-03-05T01:26:16.715Z,5.60
2023-03-05T01:28:43.714Z,5.60
2023-03-05T01:31:11.609Z,5.60
2023-03-05T01:33:38.908Z,5.60
2023-03-05T01:36:15.013Z,5.60
2023-03-05T01:38:42.833Z,5.60
2023-03-05T01:41:10.356Z,5.50
2023-03-05T01:43:37.115Z,5.50
2023-03-05T01:46:26.731Z,5.50
2023-03-05T01:49:04.309Z,5.60
2023-03-05T01:51:34.846Z,5.60
2023-03-05T01:54:01.757Z,5.60
2023-03-05T01:56:28.569Z,5.60
2023-03-05T01:58:55.432Z,5.50
2023-03-05T02:01:22.318Z,5.50
2023-03-05T02:03:49.154Z,5.50
2023-03-05T02:06:16.024Z,5.50
2023-03-05T02:08:42.953Z,5.50
2023-03-05T02:11:10.264Z,5.50
2023-03-05T02:13:38.680Z,5.50
2023-03-05T02:16:05.599Z,5.50
2023-03-05T02:18:32.786Z,5.50
2023-03-05T02:21:11.372Z,5.60
2023-03-05T02:23:38.448Z,5.50
2023-03-05T02:26:06.506Z,5.50
2023-03-05T02:28:51.021Z,5.50
2023-03-05T02:31:19.793Z,5.60
2023-03-05T02:33:46.705Z,5.60
2023-03-05T02:36:13.858Z,5.60
2023-03-05T02:38:41.216Z,5.60
2023-03-05T02:41:08.018Z,5.60
2023-03-05T02:43:34.824Z,5.60
2023-03-05T02:46:01.662Z,5.60
2023-03-05T02:48:28.652Z,5.50
2023-03-05T02:50:55.528Z,5.50
2023-03-05T02:53:23.671Z,5.60
2023-03-05T02:55:50.433Z,5.60
2023-03-05T02:58:17.259Z,5.50
2023-03-05T03:00:46.735Z,5.50
2023-03-05T03:03:13.791Z,5.40
2023-03-05T03:05:40.548Z,5.50
2023-03-05T03:08:07.393Z,5.40
2023-03-05T03:10:34.190Z,5.40
2023-03-05T03:13:00.952Z,5.40
2023-03-05T03:15:27.652Z,5.40
2023-03-05T03:17:54.892Z,5.40
2023-03-05T03:20:21.837Z,5.40
2023-03-05T03:22:48.739Z,5.40
2023-03-05T03:25:17.576Z,5.50
2023-03-05T03:27:44.708Z,5.50
2023-03-05T03:30:12.186Z,5.50
2023-03-05T03:32:39.024Z,5.50
2023-03-05T03:35:06.550Z,5.50
2023-03-05T03:37:33.298Z,5.40
2023-03-05T03:40:00.145Z,5.40
2023-03-05T03:42:28.285Z,5.40
2023-03-05T03:44:55.094Z,5.30
2023-03-05T03:47:22.330Z,5.30
2023-03-05T03:49:49.192Z,5.30
2023-03-05T03:52:16.023Z,5.30
2023-03-05T03:54:43.223Z,5.20
2023-03-05T03:57:10.020Z,5.20
2023-03-05T03:59:36.764Z,5.10
2023-03-05T04:02:03.609Z,5.10
2023-03-05T04:04:30.442Z,5.10
2023-03-05T04:06:57.318Z,5.10
2023-03-05T04:09:24.142Z,5.10
2023-03-05T04:11:50.971Z,5.10
2023-03-05T04:14:17.751Z,5.00
2023-03-05T04:16:44.478Z,5.00
2023-03-05T04:19:11.298Z,5.00
2023-03-05T04:21:38.053Z,5.00
2023-03-05T04:24:05.089Z,5.00
2023-03-05T04:26:31.825Z,5.00
2023-03-05T04:28:58.523Z,5.00
2023-03-05T04:31:25.274Z,5.00
2023-03-05T04:33:51.968Z,5.00
2023-03-05T04:36:18.684Z,4.90
2023-03-05T04:38:45.420Z,4.90
2023-03-05T04:41:12.265Z,4.90
2023-03-05T04:43:39.075Z,4.90
2023-03-05T04:46:05.926Z,4.80
2023-03-05T04:48:32.689Z,4.80
2023-03-05T04:50:59.471Z,4.80
2023-03-05T04:53:26.226Z,4.80
2023-03-05T04:55:54.790Z,4.80
2023-03-05T04:58:21.927Z,4.70
2023-03-05T05:00:48.645Z,4.70
2023-03-05T05:03:15.405Z,4.70
2023-03-05T05:05:42.286Z,4.70
2023-03-05T05:08:09.944Z,4.70
2023-03-05T05:10:39.614Z,4.70
2023-03-05T05:13:06.683Z,4.70
2023-03-05T05:15:33.522Z,4.70
2023-03-05T05:18:00.313Z,4.70
2023-03-05T05:20:27.077Z,4.70
2023-03-05T05:22:53.875Z,4.70
2023-03-05T05:25:20.818Z,4.70
2023-03-05T05:27:47.586Z,4.70
2023-03-05T05:30:14.478Z,4.70
2023-03-05T05:32:41.399Z,4.70
2023-03-05T05:35:08.492Z,4.70
2023-03-05T05:37:35.466Z,4.70
2023-03-05T05:40:02.283Z,4.70
2023-03-05T05:42:29.540Z,4.70
2023-03-05T05:44:56.348Z,4.60
2023-03-05T05:47:23.132Z,4.70
2023-03-05T05:49:50.047Z,4.60
2023-03-05T05:52:16.860Z,4.60
2023-03-05T05:54:43.738Z,4.60
2023-03-05T05:57:10.923Z,4.60
2023-03-05T05:59:38.302Z,4.60
2023-03-05T06:02:07.886Z,4.60
2023-03-05T06:04:37.846Z,4.60
2023-03-05T06:07:04.742Z,4.50
2023-03-05T06:09:31.681Z,4.50
2023-03-05T06:11:58.605Z,4.50
2023-03-05T06:14:25.857Z,4.50
2023-03-05T06:16:52.839Z,4.50
2023-03-05T06:19:19.842Z,4.50
2023-03-05T06:21:46.577Z,4.50
2023-03-05T06:24:13.855Z,4.50
2023-03-05T06:26:40.770Z,4.50
2023-03-05T06:29:08.675Z,4.50
2023-03-05T06:31:37.310Z,4.50
2023-03-05T06:34:04.597Z,4.50
2023-03-05T06:36:31.552Z,4.50
2023-03-05T06:38:58.668Z,4.50
2023-03-05T06:41:27.349Z,4.50
2023-03-05T06:43:54.390Z,4.50
2023-03-05T06:46:24.277Z,4.50
2023-03-05T06:48:51.795Z,4.50
2023-03-05T06:51:23.408Z,4.40
2023-03-05T06:53:50.410Z,4.40
2023-03-05T06:56:18.042Z,4.40
2023-03-05T06:58:45.960Z,4.50
2023-03-05T07:01:13.524Z,4.50
2023-03-05T07:03:40.481Z,4.50
2023-03-05T07:06:08.812Z,4.50
2023-03-05T07:08:35.642Z,4.40
2023-03-05T07:11:03.205Z,4.40
2023-03-05T07:13:29.883Z,4.40
2023-03-05T07:15:56.673Z,4.40
2023-03-05T07:18:23.524Z,4.40
2023-03-05T07:20:50.335Z,4.40
2023-03-05T07:23:17.049Z,4.40
2023-03-05T07:25:44.337Z,4.40
2023-03-05T07:28:11.018Z,4.50
2023-03-05T07:30:37.792Z,4.50
2023-03-05T07:33:04.686Z,4.50
2023-03-05T07:35:31.859Z,4.50
2023-03-05T07:37:58.656Z,4.50
2023-03-05T07:40:25.402Z,4.40
2023-03-05T07:42:54.134Z,4.50
2023-03-05T07:45:20.950Z,4.50
2023-03-05T07:47:47.729Z,4.50
2023-03-05T07:50:14.548Z,4.60
2023-03-05T07:52:41.300Z,4.60
2023-03-05T07:55:08.531Z,4.60
2023-03-05T07:57:38.049Z,4.60
2023-03-05T08:00:06.459Z,4.60
2023-03-05T08:02:33.462Z,4.60
2023-03-05T08:05:00.420Z,4.60
2023-03-05T08:07:27.222Z,4.60
2023-03-05T08:09:54.205Z,4.60
2023-03-05T08:12:21.215Z,4.60
2023-03-05T08:14:47.961Z,4.60
2023-03-05T08:17:15.054Z,4.70
2023-03-05T08:19:41.820Z,4.70
2023-03-05T08:22:08.517Z,4.80
2023-03-05T08:24:35.362Z,4.80
2023-03-05T08:27:02.125Z,4.90
2023-03-05T08:29:28.856Z,4.90
2023-03-05T08:31:56.600Z,4.90
2023-03-05T08:34:23.420Z,4.90
2023-03-05T08:36:50.318Z,4.90
2023-03-05T08:39:18.511Z,5.00
2023-03-05T08:41:45.489Z,5.00
2023-03-05T08:44:12.672Z,5.00
2023-03-05T08:46:40.097Z,5.00
2023-03-05T08:49:07.747Z,5.00
2023-03-05T08:51:35.015Z,5.00
2023-03-05T08:54:02.574Z,5.10
2023-03-05T08:56:31.376Z,5.10
2023-03-05T08:58:58.166Z,5.10
2023-03-05T09:01:25.115Z,5.20
2023-03-05T09:03:52.237Z,5.20
2023-03-05T09:06:19.026Z,5.20
2023-03-05T09:08:45.865Z,5.20
2023-03-05T09:11:13.425Z,5.20
2023-03-05T09:13:40.397Z,5.20
2023-03-05T09:16:09.496Z,5.20
2023-03-05T09:18:36.982Z,5.20
2023-03-05T09:21:07.999Z,5.20
2023-03-05T09:23:34.740Z,5.30
2023-03-05T09:26:01.678Z,5.30
2023-03-05T09:28:29.410Z,5.40
2023-03-05T09:30:56.329Z,5.30
2023-03-05T09:33:23.529Z,5.30
2023-03-05T09:35:50.318Z,5.30
2023-03-05T09:38:18.961Z,5.30
2023-03-05T09:41:23.233Z,5.30
2023-03-05T09:43:54.565Z,5.40
2023-03-05T09:46:24.105Z,5.40
2023-03-05T09:49:03.357Z,5.50
2023-03-05T09:51:31.620Z,5.60
2023-03-05T09:54:12.697Z,5.60
2023-03-05T09:56:45.083Z,5.70
2023-03-05T09:59:32.926Z,5.80
2023-03-05T10:02:05.797Z,5.90
2023-03-05T10:04:43.921Z,5.90
2023-03-05T10:07:24.436Z,6.00
2023-03-05T10:10:00.653Z,6.00
2023-03-05T10:12:46.725Z,6.00
2023-03-05T10:15:15.227Z,5.90
2023-03-05T10:18:12.684Z,5.90
2023-03-05T10:20:59.381Z,6.00
2023-03-05T10:23:36.354Z,6.00
2023-03-05T10:26:08.035Z,6.10
2023-03-05T10:28:49.208Z,6.30
2023-03-05T10:31:53.258Z,6.50
2023-03-05T10:34:25.516Z,6.50
2023-03-05T10:37:12.832Z,6.30
2023-03-05T10:40:17.333Z,6.30
2023-03-05T10:42:50.440Z,6.40
2023-03-05T10:45:29.371Z,6.40
2023-03-05T10:48:21.211Z,6.40
2023-03-05T10:50:50.263Z,6.50
2023-03-05T10:53:29.736Z,6.40
2023-03-05T10:55:56.609Z,6.30
2023-03-05T10:58:24.780Z,6.20
2023-03-05T11:01:10.689Z,6.40
2023-03-05T11:03:53.986Z,6.40
2023-03-05T11:06:40.858Z,6.50
2023-03-05T11:09:29.729Z,6.50
2023-03-05T11:12:16.720Z,6.40
2023-03-05T11:14:45.787Z,6.30
2023-03-05T11:17:32.602Z,6.40
2023-03-05T11:20:37.466Z,6.50
2023-03-05T11:23:14.545Z,6.50
2023-03-05T11:26:01.807Z,6.40
2023-03-05T11:28:35.779Z,6.50
2023-03-05T11:31:07.410Z,6.60
2023-03-05T11:33:35.715Z,6.70
2023-03-05T11:36:23.869Z,6.70
2023-03-05T11:38:59.652Z,6.70
2023-03-05T11:41:31.874Z,6.80
2023-03-05T11:43:59.044Z,6.70
2023-03-05T11:46:32.842Z,6.70
2023-03-05T11:48:59.876Z,6.80
2023-03-05T11:51:31.309Z,6.90
2023-03-05T11:54:01.728Z,6.90
2023-03-05T11:56:31.196Z,6.90
2023-03-05T11:59:03.453Z,7.00
2023-03-05T12:01:33.514Z,6.90
2023-03-05T12:04:01.387Z,7.00
2023-03-05T12:06:54.684Z,7.10
2023-03-05T12:09:41.075Z,6.90
2023-03-05T12:12:30.890Z,6.80
2023-03-05T12:15:25.465Z,6.80
2023-03-05T12:17:52.133Z,6.70
2023-03-05T12:20:48.925Z,6.90
2023-03-05T12:23:20.461Z,6.90
2023-03-05T12:25:59.367Z,6.70
2023-03-05T12:28:32.291Z,6.70
2023-03-05T12:31:09.366Z,6.70
2023-03-05T12:33:39.935Z,6.50
2023-03-05T12:36:21.992Z,6.50
2023-03-05T12:38:53.515Z,6.40
2023-03-05T12:41:23.533Z,6.60
2023-03-05T12:44:05.872Z,6.70
2023-03-05T12:46:42.478Z,6.60
2023-03-05T12:49:18.662Z,6.60
2023-03-05T12:51:50.039Z,6.60
2023-03-05T12:54:39.622Z,6.60
2023-03-05T12:57:17.375Z,6.50
2023-03-05T12:59:50.014Z,6.40
2023-03-05T13:02:22.544Z,6.40
2023-03-05T13:04:49.593Z,6.30
2023-03-05T13:07:17.411Z,6.20
2023-03-05T13:10:00.079Z,6.00
2023-03-05T13:12:28.002Z,6.00
2023-03-05T13:15:04.983Z,6.00
2023-03-05T13:17:51.192Z,6.20
2023-03-05T13:20:29.986Z,6.30
2023-03-05T13:23:20.698Z,6.50
2023-03-05T13:25:57.931Z,6.50
2023-03-05T13:28:24.690Z,6.60
2023-03-05T13:30:52.502Z,6.70
2023-03-05T13:33:22.976Z,6.90
2023-03-05T13:35:49.880Z,6.80
2023-03-05T13:38:22.981Z,6.60
2023-03-05T13:41:25.567Z,6.60
2023-03-05T13:43:54.222Z,6.50
2023-03-05T13:46:40.486Z,6.50
2023-03-05T13:49:19.267Z,6.50
2023-03-05T13:51:51.130Z,6.30
2023-03-05T13:54:18.813Z,6.30
2023-03-05T13:57:18.283Z,6.30
2023-03-05T13:59:52.388Z,6.20
2023-03-05T14:02:19.840Z,6.20
2023-03-05T14:04:46.623Z,6.20
2023-03-05T14:07:26.899Z,6.20
2023-03-05T14:09:53.748Z,6.20
2023-03-05T14:12:35.972Z,6.20
2023-03-05T14:15:10.118Z,6.20
2023-03-05T14:17:42.547Z,6.20
2023-03-05T14:20:24.634Z,6.20
2023-03-05T14:22:53.551Z,6.10
2023-03-05T14:25:29.457Z,6.10
2023-03-05T14:27:59.392Z,6.20
2023-03-05T14:30:26.511Z,6.00
2023-03-05T14:32:55.590Z,5.90
2023-03-05T14:35:25.346Z,5.90
2023-03-05T14:37:52.699Z,5.90
2023-03-05T14:40:28.837Z,5.90
2023-03-05T14:43:00.111Z,5.80
2023-03-05T14:45:34.670Z,5.70
2023-03-05T14:48:02.595Z,5.70
2023-03-05T14:50:53.214Z,5.60
2023-03-05T14:53:29.502Z,5.60
2023-03-05T14:55:56.940Z,5.60
2023-03-05T14:58:26.103Z,5.60
2023-03-05T15:00:53.340Z,5.60
2023-03-05T15:03:20.551Z,5.50
2023-03-05T15:05:48.742Z,5.40
2023-03-05T15:08:25.817Z,5.50
2023-03-05T15:10:52.985Z,5.50
2023-03-05T15:13:19.788Z,5.60
2023-03-05T15:15:47.313Z,5.60
2023-03-05T15:18:14.603Z,5.60
2023-03-05T15:20:41.370Z,5.60
2023-03-05T15:23:08.176Z,5.60
2023-03-05T15:25:35.021Z,5.60
2023-03-05T15:28:02.126Z,5.50
2023-03-05T15:30:33.623Z,5.50
2023-03-05T15:33:03.707Z,5.50
2023-03-05T15:35:30.508Z,5.50
2023-03-05T15:37:58.032Z,5.50
2023-03-05T15:40:25.358Z,5.40
2023-03-05T15:42:52.187Z,5.40
2023-03-05T15:45:18.937Z,5.40
2023-03-05T15:47:48.477Z,5.50
2023-03-05T15:50:15.840Z,5.50
2023-03-05T15:52:44.436Z,5.50
2023-03-05T15:55:12.051Z,5.40
2023-03-05T15:57:45.014Z,5.40
2023-03-05T16:00:12.649Z,5.40
2023-03-05T16:02:39.484Z,5.40
2023-03-05T16:05:07.043Z,5.40
2023-03-05T16:07:34.462Z,5.40
2023-03-05T16:10:01.311Z,5.40
2023-03-05T16:12:30.848Z,5.50
2023-03-05T16:14:57.591Z,5.50
2023-03-05T16:17:24.236Z,5.50
2023-03-05T16:19:52.689Z,5.60
2023-03-05T16:22:19.392Z,5.60
2023-03-05T16:24:46.229Z,5.60
2023-03-05T16:27:12.977Z,5.60
2023-03-05T16:29:39.775Z,5.60
2023-03-05T16:32:06.787Z,5.50
2023-03-05T16:34:34.593Z,5.50
2023-03-05T16:37:04.311Z,5.40
2023-03-05T16:39:31.087Z,5.50
2023-03-05T16:41:57.863Z,5.60
2023-03-05T16:44:24.551Z,5.60
2023-03-05T16:46:53.773Z,5.60
2023-03-05T16:49:20.956Z,5.60
2023-03-05T16:51:47.740Z,5.60
2023-03-05T16:54:14.584Z,5.50
2023-03-05T16:56:41.542Z,5.50
2023-03-05T16:59:08.232Z,5.50
2023-03-05T17:01:34.986Z,5.50
2023-03-05T17:04:02.174Z,5.40
2023-03-05T17:06:29.788Z,5.50
2023-03-05T17:08:56.640Z,5.50
2023-03-05T17:11:25.606Z,5.40
2023-03-05T17:13:52.828Z,5.40
2023-03-05T17:16:20.198Z,5.40
2023-03-05T17:18:48.762Z,5.40
2023-03-05T17:21:15.641Z,5.40
2023-03-05T17:23:43.199Z,5.40
2023-03-05T17:26:15.340Z,5.40
2023-03-05T17:28:42.294Z,5.40
2023-03-05T17:31:09.837Z,5.40
2023-03-05T17:33:37.001Z,5.30
2023-03-05T17:36:04.181Z,5.30
2023-03-05T17:38:30.955Z,5.30
2023-03-05T17:40:57.690Z,5.30
2023-03-05T17:43:24.469Z,5.20
2023-03-05T17:45:51.250Z,5.30
2023-03-05T17:48:17.985Z,5.30
2023-03-05T17:50:45.152Z,5.20
2023-03-05T17:53:12.369Z,5.30
2023-03-05T17:55:39.529Z,5.30
2023-03-05T17:58:06.286Z,5.20
2023-03-05T18:00:33.192Z,5.20
2023-03-05T18:03:00.159Z,5.20
2023-03-05T18:05:27.105Z,5.20
2023-03-05T18:07:54.882Z,5.20
2023-03-05T18:10:23.103Z,5.10
2023-03-05T18:12:49.932Z,5.20
2023-03-05T18:15:17.660Z,5.10
2023-03-05T18:17:44.602Z,5.20
2023-03-05T18:20:32.095Z,5.20
2023-03-05T18:22:59.632Z,5.20
2023-03-05T18:25:31.316Z,5.20
2023-03-05T18:28:00.117Z,5.20
2023-03-05T18:30:27.204Z,5.20
2023-03-05T18:32:54.082Z,5.20
2023-03-05T18:35:21.109Z,5.20
2023-03-05T18:37:48.054Z,5.20
2023-03-05T18:40:19.224Z,5.30
2023-03-05T18:42:46.264Z,5.30
2023-03-05T18:45:17.787Z,5.30
2023-03-05T18:47:44.599Z,5.30
2023-03-05T18:50:14.717Z,5.30
2023-03-05T18:52:42.519Z,5.20
2023-03-05T18:55:17.359Z,5.30
2023-03-05T18:57:44.181Z,5.30
2023-03-05T19:00:14.098Z,5.30
2023-03-05T19:02:40.876Z,5.20
2023-03-05T19:05:08.310Z,5.20
2023-03-05T19:07:35.313Z,5.20
2023-03-05T19:10:07.262Z,5.20
2023-03-05T19:12:37.415Z,5.20
2023-03-05T19:15:05.148Z,5.20
2023-03-05T19:17:32.068Z,5.20
2023-03-05T19:19:59.702Z,5.20
2023-03-05T19:22:26.957Z,5.20
2023-03-05T19:24:54.042Z,5.20
2023-03-05T19:27:20.787Z,5.20
2023-03-05T19:29:47.651Z,5.20
2023-03-05T19:32:15.980Z,5.10
2023-03-05T19:34:42.936Z,5.10
2023-03-05T19:37:09.620Z,5.10
2023-03-05T19:39:36.532Z,5.10
2023-03-05T19:42:03.720Z,5.10
2023-03-05T19:44:30.838Z,5.10
2023-03-05T19:46:57.540Z,5.10
2023-03-05T19:49:24.325Z,5.10
2023-03-05T19:51:51.288Z,5.10
2023-03-05T19:54:19.567Z,5.10
2023-03-05T19:56:46.979Z,5.10
2023-03-05T19:59:17.128Z,5.20
2023-03-05T20:01:44.740Z,5.10
2023-03-05T20:04:14.646Z,5.10
2023-03-05T20:06:41.468Z,5.10
2023-03-05T20:09:08.550Z,5.10
2023-03-05T20:11:35.405Z,5.10
2023-03-05T20:14:02.373Z,5.10
2023-03-05T20:16:31.328Z,5.10
2023-03-05T20:18:58.665Z,5.10
2023-03-05T20:21:29.905Z,5.10
2023-03-05T20:23:58.320Z,5.10
2023-03-05T20:26:25.875Z,5.10
2023-03-05T20:28:53.244Z,5.10
2023-03-05T20:31:20.930Z,5.10
2023-03-05T20:33:48.024Z,5.10
2023-03-05T20:36:14.754Z,5.10
2023-03-05T20:38:41.788Z,5.10
2023-03-05T20:41:10.722Z,5.10
2023-03-05T20:43:40.830Z,5.10
2023-03-05T20:46:18.442Z,5.10
2023-03-05T20:48:45.919Z,5.10
2023-03-05T20:51:14.225Z,5.10
2023-03-05T20:53:41.103Z,5.10
2023-03-05T20:56:08.129Z,5.10
2023-03-05T20:58:34.967Z,5.10
2023-03-05T21:01:01.850Z,5.10
2023-03-05T21:03:29.761Z,5.00
2023-03-05T21:05:57.145Z,5.00
2023-03-05T21:08:24.220Z,5.00
2023-03-05T21:10:51.072Z,5.00
2023-03-05T21:13:18.095Z,5.00
2023-03-05T21:15:45.046Z,5.00
2023-03-05T21:18:11.752Z,5.00
2023-03-05T21:20:39.603Z,5.00
2023-03-05T21:23:06.322Z,5.00
2023-03-05T21:25:33.463Z,5.00
2023-03-05T21:28:02.283Z,5.00
2023-03-05T21:30:35.096Z,5.00
2023-03-05T21:33:02.522Z,5.00
2023-03-05T21:35:29.573Z,5.00
2023-03-05T21:37:56.428Z,5.00
2023-03-05T21:40:23.214Z,5.00
2023-03-05T21:42:50.048Z,5.00
2023-03-05T21:45:19.741Z,5.00
2023-03-05T21:47:46.795Z,5.00
2023-03-05T21:50:14.016Z,5.00
2023-03-05T21:52:40.797Z,5.00
2023-03-05T21:55:07.840Z,5.00
2023-03-05T21:57:34.584Z,5.00
2023-03-05T22:00:01.419Z,5.00
2023-03-05T22:02:28.225Z,5.00
2023-03-05T22:04:55.040Z,5.00
2023-03-05T22:07:21.863Z,5.00
2023-03-05T22:09:54.054Z,5.00
2023-03-05T22:12:31.316Z,4.90
2023-03-05T22:14:58.128Z,4.80
2023-03-05T22:17:24.945Z,4.80
2023-03-05T22:19:51.653Z,4.70
2023-03-05T22:22:18.381Z,4.70
2023-03-05T22:24:45.057Z,4.70
2023-03-05T22:27:11.853Z,4.60
2023-03-05T22:29:38.617Z,4.60
2023-03-05T22:32:05.664Z,4.60
2023-03-05T22:34:32.364Z,4.60
2023-03-05T22:36:59.121Z,4.60
2023-03-05T22:39:25.974Z,4.60
2023-03-05T22:41:52.783Z,4.60
2023-03-05T22:44:19.573Z,4.60
2023-03-05T22:46:46.247Z,4.60
2023-03-05T22:49:13.047Z,4.60
2023-03-05T22:51:39.771Z,4.60
2023-03-05T22:54:06.610Z,4.60
2023-03-05T22:56:33.440Z,4.60
2023-03-05T22:59:00.106Z,4.60
2023-03-05T23:01:26.923Z,4.60
2023-03-05T23:03:58.623Z,4.60
2023-03-05T23:06:25.420Z,4.60
2023-03-05T23:08:52.149Z,4.60
2023-03-05T23:11:19.473Z,4.60
2023-03-05T23:13:46.881Z,4.60
2023-03-05T23:16:13.668Z,4.60
2023-03-05T23:18:40.468Z,4.70
2023-03-05T23:21:07.249Z,4.60
2023-03-05T23:23:34.092Z,4.60
2023-03-05T23:26:01.115Z,4.60
2023-03-05T23:28:27.911Z,4.60
2023-03-05T23:30:54.812Z,4.60
2023-03-05T23:33:22.666Z,4.60
2023-03-05T23:35:51.561Z,4.60
2023-03-05T23:38:18.579Z,4.60
2023-03-05T23:40:46.952Z,4.60
2023-03-05T23:43:14.496Z,4.60
2023-03-05T23:45:42.768Z,4.60
2023-03-05T23:48:10.341Z,4.60
2023-03-05T23:50:38.856Z,4.60
2023-03-05T23:53:05.698Z,4.60
2023-03-05T23:55:37.705Z,4.60
2023-03-05T23:58:04.496Z,4.60
